Archival Weather

Republic

Farmingdale, New York (KFRG)

Report from: Tuesday, January 30, 2024 1:53 AM EST
Current time: Friday, June 21, 2024 3:25 AM EDT

Current weather – Weather history – Daily summaries
Weather forecast

Temperature1.7°C (35.1°F)
Wind chill-0.5°C (31.0°F)
Dew point-3.3°C (26.1°F)
Winds 4 kts (2.1 m/s, 4.6 mph) North-Northeast (30°)
Visibility10 mi. (16.1 km)
Clouds Ceiling: Overcast 3,400 ft. (1,036 m)
Altimeter30.12 in.Hg (1020 mB)
Relative humidity69 %
Density altitude-1,771 ft. (-540 m)
Sea-level pressure102.0 kPa (1020 mB, 30.12 in.Hg)
Remarks Automated weather observing station without precipitation discriminator
Flight conditions Visual Meteorological Conditions
Raw dataKFRG 300653Z 03004KT 10SM OVC034 02/M03 A3012 RMK AO1 SLP199 T00171033
An error has occurred. This application may no longer respond until reloaded. Reload 🗙